If you wish to contribute or participate in the discussions about articles you are invited to join SKYbrary as a registered user

 Actions

Morlaix/Ploujean

From SKYbrary Wiki

LFRU
Airport
ICAO: LFRU
Summary
Name Morlaix/Ploujean
Region Europe
Territory France FR.gif
Location Ploujean, Bretagne
Serving
Coordinates 48° 36' 15.04" N, 3° 48' 51.95" W
Runways
Designator Length Width Surface ROPS
5/23 1617 m5,305.118 ft
36 m118.11 ft
ASP /
16/34 0 m0 ft
0 m0 ft
UNK /


METAR
Observation LFRU 220600Z AUTO 00000KT CAVOK 09/09 Q1026
Station Morlaix / Ploujean
Date/Time 22 August 2019 06:00:00
Wind direction
Wind speed 00 kts
Lowest cloud amount clouds and visibility OK
Temperature 9°C
Dew point 9°C
Humidity 100%
QNH 1026 hPa
Weather condition n/a


Morlaix/Ploujean Airport

ICAO: LFRU IATA: MXN

Description

Morlaix - Ploujean Airport is an airport located 2 km1.08 nm
2,000 m
6,561.68 ft
northeast of Morlaix, a commune of the Finistère department in the Brittany region of France. The airport is located in the former commune of Ploujean.

Climatology

Temperate Marine climate/Oceanic climate (Köppen climate classification Cfb). Moderately cool summer and comparatively warm winter with a temperature range of only 14°C57.2 °F
287.15 K
516.87 °R
. Prevailing south-westerly winds from the Atlantic Ocean.

Maps

Terrain

Loading map...

Airport Layout

Loading map...


Accidents & Serious Incidents at or in vicinity of LFRU

None on SKYbrary